Rochefort, Belgium
Current Conditions -  °F | °C
As of 4:55 PM on Friday 28 Nov 2014 (Local Time) from EBFS Reporting Station
Broken Clouds Broken Clouds  
Wind Chill: 10°   Ceiling: 10000
Heat Index: 10°   Visibility: 6mi
Dew Point:   Wind: 7mph
Humidity: 76%   Direction: 90°E
Pressure: 29.71"   Gusts: NA
Location:  50.16°N, 5.22°E
Report Text: EBFS 281555Z 09006KT 9999 BKN100 10/06 Q1006 BLU
Loading
Personal Weather Stations






























Interactive Weather Map New forecast layout! Learn more

10-Day Weather Forecast

Advertisements
Track Severe Weather on mobile